createdAt,value
2022-10-30T00:00:55.361Z,12.91
2022-10-30T00:03:23.011Z,12.88
2022-10-30T00:05:51.959Z,12.85
2022-10-30T00:08:21.151Z,12.81
2022-10-30T00:10:50.466Z,12.78
2022-10-30T00:13:19.377Z,12.81
2022-10-30T00:15:51.527Z,12.79
2022-10-30T00:18:21.001Z,12.77
2022-10-30T00:20:48.724Z,12.76
2022-10-30T00:23:16.617Z,12.71
2022-10-30T00:25:44.153Z,12.70
2022-10-30T00:28:11.539Z,12.69
2022-10-30T00:30:39.248Z,12.66
2022-10-30T00:33:06.735Z,12.62
2022-10-30T00:35:34.468Z,12.60
2022-10-30T00:38:03.240Z,12.56
2022-10-30T00:40:30.965Z,12.52
2022-10-30T00:42:58.471Z,12.47
2022-10-30T00:45:26.094Z,12.46
2022-10-30T00:47:56.855Z,12.43
2022-10-30T00:53:03.884Z,12.38
2022-10-30T00:55:34.683Z,12.35
2022-10-30T00:58:03.957Z,12.34
2022-10-30T01:00:31.561Z,12.34
2022-10-30T01:02:59.463Z,12.33
2022-10-30T01:05:29.249Z,12.31
2022-10-30T01:07:56.932Z,12.28
2022-10-30T01:10:25.062Z,12.27
2022-10-30T01:12:54.185Z,12.27
2022-10-30T01:15:27.353Z,12.23
2022-10-30T01:18:18.265Z,12.23
2022-10-30T01:20:59.204Z,12.19
2022-10-30T01:24:00.860Z,12.17
2022-10-30T01:26:57.482Z,12.15
2022-10-30T01:30:02.802Z,12.13
2022-10-30T01:32:55.942Z,12.09
2022-10-30T01:35:32.818Z,12.07
2022-10-30T01:38:23.763Z,12.06
2022-10-30T01:40:53.903Z,12.03
2022-10-30T01:43:21.466Z,12.02
2022-10-30T01:46:13.015Z,11.97
2022-10-30T01:48:43.453Z,11.96
2022-10-30T01:51:20.473Z,11.95
2022-10-30T01:53:57.112Z,11.93
2022-10-30T01:56:34.165Z,11.91
2022-10-30T01:59:19.380Z,11.86
2022-10-30T02:01:47.178Z,11.87
2022-10-30T02:04:14.866Z,11.86
2022-10-30T02:06:42.889Z,11.85
2022-10-30T02:09:11.319Z,11.85
2022-10-30T02:11:47.336Z,11.84
2022-10-30T02:14:22.212Z,11.84
2022-10-30T02:16:52.308Z,11.81
2022-10-30T02:19:22.043Z,11.82
2022-10-30T02:21:50.488Z,11.82
2022-10-30T02:24:18.774Z,11.83
2022-10-30T02:26:46.800Z,11.79
2022-10-30T02:29:15.577Z,11.81
2022-10-30T02:31:43.069Z,11.81
2022-10-30T02:34:11.828Z,11.75
2022-10-30T02:36:39.431Z,11.80
2022-10-30T02:39:07.077Z,11.77
2022-10-30T02:41:36.492Z,11.79
2022-10-30T02:44:04.869Z,11.79
2022-10-30T02:46:33.198Z,11.78
2022-10-30T02:49:00.960Z,11.76
2022-10-30T02:51:28.651Z,11.77
2022-10-30T02:53:56.230Z,11.75
2022-10-30T02:56:23.788Z,11.73
2022-10-30T02:58:52.510Z,11.73
2022-10-30T03:01:20.333Z,11.70
2022-10-30T03:03:49.189Z,11.69
2022-10-30T03:06:17.424Z,11.66
2022-10-30T03:08:48.994Z,11.63
2022-10-30T03:11:18.330Z,11.60
2022-10-30T03:13:48.005Z,11.54
2022-10-30T03:16:26.852Z,11.53
2022-10-30T03:18:56.049Z,11.51
2022-10-30T03:21:25.866Z,11.50
2022-10-30T03:23:54.161Z,11.45
2022-10-30T03:26:22.811Z,11.43
2022-10-30T03:28:53.185Z,11.42
2022-10-30T03:31:28.254Z,11.41
2022-10-30T03:34:08.765Z,11.43
2022-10-30T03:36:36.383Z,11.35
2022-10-30T03:39:04.823Z,11.34
2022-10-30T03:41:34.261Z,11.30
2022-10-30T03:44:01.979Z,11.25
2022-10-30T03:46:31.485Z,11.26
2022-10-30T03:49:12.985Z,11.20
2022-10-30T03:51:40.646Z,11.18
2022-10-30T03:54:08.175Z,11.04
2022-10-30T03:56:35.747Z,11.15
2022-10-30T03:59:05.455Z,11.14
2022-10-30T04:01:36.892Z,11.17
2022-10-30T04:04:04.863Z,11.14
2022-10-30T04:06:33.452Z,11.11
2022-10-30T04:09:01.405Z,11.12
2022-10-30T04:11:35.174Z,11.08
2022-10-30T04:14:04.904Z,11.11
2022-10-30T04:16:33.518Z,11.06
2022-10-30T04:19:02.174Z,11.07
2022-10-30T04:21:29.647Z,11.05
2022-10-30T04:23:58.588Z,11.01
2022-10-30T04:26:31.464Z,11.01
2022-10-30T04:29:03.870Z,10.98
2022-10-30T04:31:31.845Z,10.92
2022-10-30T04:34:01.367Z,10.89
2022-10-30T04:36:34.005Z,10.90
2022-10-30T04:39:02.612Z,10.89
2022-10-30T04:41:31.141Z,10.85
2022-10-30T04:44:07.072Z,10.86
2022-10-30T04:46:35.665Z,10.80
2022-10-30T04:49:09.590Z,10.81
2022-10-30T04:51:38.171Z,10.82
2022-10-30T04:54:07.568Z,10.78
2022-10-30T04:56:37.324Z,10.78
2022-10-30T04:59:05.126Z,10.77
2022-10-30T05:01:34.142Z,10.72
2022-10-30T05:04:03.349Z,10.75
2022-10-30T05:06:33.352Z,10.69
2022-10-30T05:09:00.946Z,10.69
2022-10-30T05:11:38.636Z,10.65
2022-10-30T05:14:09.257Z,10.61
2022-10-30T05:16:38.451Z,10.60
2022-10-30T05:19:07.249Z,10.60
2022-10-30T05:21:35.680Z,10.54
2022-10-30T05:24:04.364Z,10.57
2022-10-30T05:26:39.730Z,10.53
2022-10-30T05:29:08.349Z,10.52
2022-10-30T05:31:36.271Z,10.51
2022-10-30T05:34:29.892Z,10.48
2022-10-30T05:36:57.593Z,10.47
2022-10-30T05:39:25.198Z,10.47
2022-10-30T05:41:53.289Z,10.42
2022-10-30T05:44:34.662Z,10.44
2022-10-30T05:47:11.398Z,10.42
2022-10-30T05:49:41.227Z,10.44
2022-10-30T05:52:13.523Z,10.47
2022-10-30T05:54:41.159Z,10.44
2022-10-30T05:57:18.027Z,10.44
2022-10-30T05:59:45.994Z,10.48
2022-10-30T06:02:14.605Z,10.46
2022-10-30T06:04:42.659Z,10.47
2022-10-30T06:07:13.401Z,10.50
2022-10-30T06:09:41.003Z,10.48
2022-10-30T06:12:36.315Z,10.47
2022-10-30T06:15:24.684Z,10.52
2022-10-30T06:17:54.356Z,10.51
2022-10-30T06:20:35.588Z,10.52
2022-10-30T06:23:27.221Z,10.54
2022-10-30T06:26:05.437Z,10.50
2022-10-30T06:28:58.707Z,10.52
2022-10-30T06:31:26.206Z,10.49
2022-10-30T06:33:53.959Z,10.55
2022-10-30T06:36:22.342Z,10.56
2022-10-30T06:38:50.190Z,10.58
2022-10-30T06:41:21.073Z,10.55
2022-10-30T06:44:05.729Z,10.61
2022-10-30T06:46:37.550Z,10.64
2022-10-30T06:49:05.679Z,10.66
2022-10-30T06:51:33.280Z,10.59
2022-10-30T06:54:01.513Z,10.63
2022-10-30T06:56:40.968Z,10.69
2022-10-30T06:59:17.367Z,10.70
2022-10-30T07:02:11.237Z,10.70
2022-10-30T07:05:03.740Z,10.74
2022-10-30T07:07:31.303Z,10.76
2022-10-30T07:09:59.740Z,10.79
2022-10-30T07:12:54.798Z,10.81
2022-10-30T07:18:20.943Z,10.85
2022-10-30T07:20:55.654Z,10.88
2022-10-30T07:23:24.325Z,10.95
2022-10-30T07:26:04.035Z,10.98
2022-10-30T07:28:37.972Z,10.99
2022-10-30T07:31:49.558Z,11.07
2022-10-30T07:34:49.823Z,11.13
2022-10-30T07:37:49.418Z,11.17
2022-10-30T07:40:18.679Z,11.18
2022-10-30T07:43:16.112Z,11.26
2022-10-30T07:46:03.066Z,11.33
2022-10-30T07:48:56.921Z,11.38
2022-10-30T07:51:29.672Z,11.43
2022-10-30T07:53:57.140Z,11.47
2022-10-30T07:56:25.983Z,11.55
2022-10-30T07:58:53.429Z,11.61
2022-10-30T08:01:57.479Z,11.70
2022-10-30T08:04:45.055Z,11.77
2022-10-30T08:07:37.228Z,11.86
2022-10-30T08:10:06.945Z,11.93
2022-10-30T08:12:35.347Z,12.04
2022-10-30T08:15:05.359Z,12.12
2022-10-30T08:17:32.952Z,12.20
2022-10-30T08:20:00.702Z,12.30
2022-10-30T08:22:28.241Z,12.38
2022-10-30T08:25:01.102Z,12.49
2022-10-30T08:27:31.629Z,12.59
2022-10-30T08:29:59.205Z,12.72
2022-10-30T08:32:26.788Z,12.84
2022-10-30T08:35:18.637Z,13.02
2022-10-30T08:37:47.649Z,13.16
2022-10-30T08:40:18.854Z,13.33
2022-10-30T08:42:58.038Z,13.51
2022-10-30T08:45:31.444Z,13.68
2022-10-30T08:48:20.309Z,13.88
2022-10-30T08:50:47.948Z,14.05
2022-10-30T08:53:20.973Z,14.15
2022-10-30T08:55:51.770Z,14.37
2022-10-30T08:58:26.343Z,14.57
2022-10-30T09:00:58.619Z,14.75
2022-10-30T09:04:06.009Z,14.98
2022-10-30T09:06:56.350Z,15.16
2022-10-30T09:09:42.313Z,15.35
2022-10-30T09:12:10.448Z,15.51
2022-10-30T09:14:43.165Z,15.66
2022-10-30T09:17:12.716Z,15.85
2022-10-30T09:19:44.312Z,16.00
2022-10-30T09:22:19.941Z,16.18
2022-10-30T09:24:47.412Z,16.33
2022-10-30T09:27:43.011Z,16.50
2022-10-30T09:30:15.599Z,16.68
2022-10-30T09:32:49.923Z,16.85
2022-10-30T09:35:22.962Z,16.97
2022-10-30T09:37:52.050Z,17.18
2022-10-30T09:40:24.854Z,17.33
2022-10-30T09:43:02.498Z,17.50
2022-10-30T09:45:58.805Z,17.65
2022-10-30T09:48:51.754Z,17.83
2022-10-30T09:51:48.551Z,18.01
2022-10-30T09:54:21.345Z,18.21
2022-10-30T09:57:02.453Z,18.35
2022-10-30T09:59:30.892Z,18.52
2022-10-30T10:02:37.752Z,18.65
2022-10-30T10:05:19.549Z,18.84
2022-10-30T10:08:11.712Z,19.00
2022-10-30T10:11:23.433Z,19.17
2022-10-30T10:14:01.753Z,19.38
2022-10-30T10:16:35.366Z,19.52
2022-10-30T10:19:22.781Z,19.66
2022-10-30T10:22:04.133Z,19.88
2022-10-30T10:24:35.909Z,20.05
2022-10-30T10:27:06.282Z,20.25
2022-10-30T10:30:16.297Z,20.42
2022-10-30T10:33:01.171Z,20.66
2022-10-30T10:35:35.166Z,20.90
2022-10-30T10:38:19.280Z,21.10
2022-10-30T10:40:52.940Z,21.32
2022-10-30T10:44:22.913Z,21.49
2022-10-30T10:47:08.225Z,21.79
2022-10-30T10:49:59.334Z,21.95
2022-10-30T10:53:04.040Z,22.19
2022-10-30T10:55:37.608Z,22.44
2022-10-30T10:58:33.249Z,22.62
2022-10-30T11:01:00.985Z,22.86
2022-10-30T11:03:35.773Z,23.10
2022-10-30T11:06:22.922Z,23.31
2022-10-30T11:08:52.912Z,23.64
2022-10-30T11:11:21.502Z,23.98
2022-10-30T11:13:50.263Z,24.28
2022-10-30T11:16:43.003Z,24.61
2022-10-30T11:19:10.785Z,25.08
2022-10-30T11:21:42.119Z,25.55
2022-10-30T11:24:33.831Z,26.06
2022-10-30T11:27:23.601Z,26.71
2022-10-30T11:29:53.928Z,27.37
2022-10-30T11:32:23.002Z,28.04
2022-10-30T11:35:08.853Z,28.81
2022-10-30T11:37:38.959Z,29.51
2022-10-30T11:40:27.891Z,30.26
2022-10-30T11:43:03.871Z,30.89
2022-10-30T11:45:34.665Z,31.51
2022-10-30T11:48:03.201Z,32.05
2022-10-30T11:50:32.644Z,32.54
2022-10-30T11:53:20.168Z,32.97
2022-10-30T11:55:48.438Z,33.37
2022-10-30T11:58:30.968Z,33.77
2022-10-30T12:01:23.394Z,34.03
2022-10-30T12:03:51.769Z,34.27
2022-10-30T12:06:29.239Z,34.50
2022-10-30T12:09:01.993Z,34.61
2022-10-30T12:11:35.967Z,34.74
2022-10-30T12:14:04.490Z,34.77
2022-10-30T12:16:33.216Z,34.80
2022-10-30T12:19:06.766Z,34.86
2022-10-30T12:21:40.821Z,34.89
2022-10-30T12:24:16.742Z,34.92
2022-10-30T12:26:47.926Z,34.91
2022-10-30T12:29:18.016Z,34.93
2022-10-30T12:31:48.435Z,34.99
2022-10-30T12:34:28.022Z,35.03
2022-10-30T12:37:02.777Z,35.06
2022-10-30T12:39:42.818Z,35.05
2022-10-30T12:42:15.719Z,35.04
2022-10-30T12:44:47.304Z,35.04
2022-10-30T12:47:25.947Z,35.06
2022-10-30T12:53:06.731Z,35.06
2022-10-30T12:55:35.392Z,35.09
2022-10-30T12:58:34.992Z,35.11
2022-10-30T13:01:15.996Z,35.16
2022-10-30T13:03:51.498Z,35.18
2022-10-30T13:06:31.645Z,35.23
2022-10-30T13:09:19.683Z,35.28
2022-10-30T13:12:01.316Z,35.34
2022-10-30T13:14:38.694Z,35.31
2022-10-30T13:17:15.998Z,35.26
2022-10-30T13:19:46.058Z,35.19
2022-10-30T13:22:25.465Z,35.14
2022-10-30T13:25:07.952Z,35.08
2022-10-30T13:27:43.585Z,35.06
2022-10-30T13:30:23.652Z,35.01
2022-10-30T13:32:51.084Z,34.94
2022-10-30T13:35:27.747Z,34.89
2022-10-30T13:38:06.812Z,34.79
2022-10-30T13:40:34.274Z,34.66
2022-10-30T13:43:18.228Z,34.52
2022-10-30T13:46:24.828Z,34.32
2022-10-30T13:49:17.122Z,34.15
2022-10-30T13:52:08.432Z,33.93
2022-10-30T13:55:29.857Z,33.60
2022-10-30T13:58:02.987Z,33.22
2022-10-30T14:00:56.402Z,32.88
2022-10-30T14:03:42.692Z,32.46
2022-10-30T14:06:19.506Z,32.02
2022-10-30T14:09:31.303Z,31.46
2022-10-30T14:12:22.739Z,31.00
2022-10-30T14:14:50.172Z,30.53
2022-10-30T14:17:19.764Z,30.12
2022-10-30T14:20:26.748Z,29.74
2022-10-30T14:23:29.179Z,29.28
2022-10-30T14:26:34.170Z,28.86
2022-10-30T14:29:32.381Z,28.44
2022-10-30T14:32:15.109Z,28.08
2022-10-30T14:34:58.496Z,27.75
2022-10-30T14:37:27.024Z,27.44
2022-10-30T14:39:56.249Z,27.16
2022-10-30T14:42:45.413Z,26.88
2022-10-30T14:45:18.319Z,26.58
2022-10-30T14:48:14.141Z,26.33
2022-10-30T14:50:53.194Z,26.06
2022-10-30T14:53:56.314Z,25.80
2022-10-30T14:56:44.824Z,25.55
2022-10-30T14:59:15.247Z,25.34
2022-10-30T15:01:52.824Z,25.15
2022-10-30T15:04:29.697Z,24.97
2022-10-30T15:07:04.374Z,24.78
2022-10-30T15:10:03.762Z,24.60
2022-10-30T15:13:02.195Z,24.40
2022-10-30T15:15:30.329Z,24.22
2022-10-30T15:18:11.652Z,24.07
2022-10-30T15:20:39.669Z,23.92
2022-10-30T15:23:38.307Z,23.75
2022-10-30T15:26:22.411Z,23.59
2022-10-30T15:28:50.977Z,23.45
2022-10-30T15:31:27.824Z,23.31
2022-10-30T15:33:56.775Z,23.19
2022-10-30T15:36:41.522Z,23.06
2022-10-30T15:39:16.801Z,22.93
2022-10-30T15:41:47.817Z,22.82
2022-10-30T15:44:21.705Z,22.72
2022-10-30T15:46:56.095Z,22.59
2022-10-30T15:49:46.862Z,22.46
2022-10-30T15:52:21.077Z,22.36
2022-10-30T15:55:13.456Z,22.24
2022-10-30T15:58:12.909Z,22.15
2022-10-30T16:00:38.195Z,22.04
2022-10-30T16:03:14.361Z,21.96
2022-10-30T16:05:42.004Z,21.85
2022-10-30T16:08:16.037Z,21.76
2022-10-30T16:10:44.402Z,21.70
2022-10-30T16:13:19.117Z,21.60
2022-10-30T16:15:47.632Z,21.51
2022-10-30T16:18:30.859Z,21.46
2022-10-30T16:21:07.945Z,21.37
2022-10-30T16:23:41.184Z,21.32
2022-10-30T16:26:12.775Z,21.22
2022-10-30T16:28:40.221Z,21.15
2022-10-30T16:31:15.278Z,21.08
2022-10-30T16:33:46.414Z,21.00
2022-10-30T16:36:17.036Z,20.94
2022-10-30T16:38:47.442Z,20.84
2022-10-30T16:41:16.214Z,20.80
2022-10-30T16:43:49.670Z,20.74
2022-10-30T16:46:18.744Z,20.67
2022-10-30T16:48:52.722Z,20.58
2022-10-30T16:51:21.550Z,20.53
2022-10-30T16:53:53.454Z,20.48
2022-10-30T16:56:32.950Z,20.41
2022-10-30T16:59:16.832Z,20.34
2022-10-30T17:01:45.211Z,20.27
2022-10-30T17:04:15.387Z,20.21
2022-10-30T17:06:45.314Z,20.15
2022-10-30T17:09:21.994Z,20.05
2022-10-30T17:12:07.909Z,19.99
2022-10-30T17:15:14.316Z,19.91
2022-10-30T17:17:42.486Z,19.86
2022-10-30T17:20:19.381Z,19.79
2022-10-30T17:22:48.338Z,19.74
2022-10-30T17:25:31.720Z,19.65
2022-10-30T17:27:59.480Z,19.60
2022-10-30T17:30:32.074Z,19.55
2022-10-30T17:32:59.832Z,19.51
2022-10-30T17:35:27.522Z,19.45
2022-10-30T17:37:58.407Z,19.40
2022-10-30T17:40:29.513Z,19.35
2022-10-30T17:42:57.038Z,19.28
2022-10-30T17:45:24.570Z,19.26
2022-10-30T17:47:52.145Z,19.19
2022-10-30T17:50:19.783Z,19.16
2022-10-30T17:52:48.418Z,19.08
2022-10-30T17:55:29.709Z,19.03
2022-10-30T17:57:57.243Z,18.97
2022-10-30T18:00:24.996Z,18.91
2022-10-30T18:02:53.928Z,18.83
2022-10-30T18:05:33.353Z,18.80
2022-10-30T18:08:01.071Z,18.73
2022-10-30T18:10:29.609Z,18.65
2022-10-30T18:12:58.143Z,18.62
2022-10-30T18:15:35.742Z,18.54
2022-10-30T18:18:03.591Z,18.48
2022-10-30T18:20:31.627Z,18.41
2022-10-30T18:22:59.977Z,18.34
2022-10-30T18:25:35.319Z,18.27
2022-10-30T18:28:03.058Z,18.22
2022-10-30T18:30:30.696Z,18.17
2022-10-30T18:32:58.661Z,18.08
2022-10-30T18:35:30.953Z,18.05
2022-10-30T18:37:58.522Z,17.96
2022-10-30T18:40:26.288Z,17.92
2022-10-30T18:42:53.787Z,17.88
2022-10-30T18:45:24.166Z,17.84
2022-10-30T18:47:52.733Z,17.78
2022-10-30T18:50:22.012Z,17.71
2022-10-30T18:52:50.119Z,17.65
2022-10-30T18:55:38.725Z,17.58
2022-10-30T18:58:07.799Z,17.57
2022-10-30T19:00:58.273Z,17.52
2022-10-30T19:03:24.171Z,17.47
2022-10-30T19:05:52.296Z,17.44
2022-10-30T19:08:19.787Z,17.39
2022-10-30T19:10:47.949Z,17.34
2022-10-30T19:13:17.108Z,17.27
2022-10-30T19:15:52.114Z,17.25
2022-10-30T19:18:21.654Z,17.24
2022-10-30T19:21:04.045Z,17.20
2022-10-30T19:23:33.404Z,17.18
2022-10-30T19:26:01.023Z,17.13
2022-10-30T19:28:30.929Z,17.09
2022-10-30T19:30:58.507Z,17.10
2022-10-30T19:33:26.057Z,17.05
2022-10-30T19:35:55.460Z,17.03
2022-10-30T19:38:22.936Z,16.99
2022-10-30T19:40:50.964Z,16.97
2022-10-30T19:43:18.521Z,16.94
2022-10-30T19:45:47.233Z,16.90
2022-10-30T19:48:24.757Z,16.85
2022-10-30T19:51:02.138Z,16.81
2022-10-30T19:53:30.704Z,16.76
2022-10-30T19:55:58.223Z,16.71
2022-10-30T19:58:26.213Z,16.65
2022-10-30T20:00:54.417Z,16.60
2022-10-30T20:03:22.076Z,16.59
2022-10-30T20:05:50.813Z,16.54
2022-10-30T20:08:25.744Z,16.48
2022-10-30T20:10:54.647Z,16.47
2022-10-30T20:13:26.020Z,16.44
2022-10-30T20:15:54.698Z,16.44
2022-10-30T20:18:24.894Z,16.39
2022-10-30T20:20:54.803Z,16.35
2022-10-30T20:23:23.489Z,16.33
2022-10-30T20:25:58.176Z,16.29
2022-10-30T20:28:30.575Z,16.26
2022-10-30T20:30:58.450Z,16.22
2022-10-30T20:33:26.807Z,16.19
2022-10-30T20:35:55.451Z,16.17
2022-10-30T20:38:31.535Z,16.13
2022-10-30T20:41:00.824Z,16.14
2022-10-30T20:43:34.189Z,16.11
2022-10-30T20:46:01.955Z,16.07
2022-10-30T20:48:30.897Z,16.03
2022-10-30T20:51:00.376Z,16.02
2022-10-30T20:53:30.432Z,16.04
2022-10-30T20:55:58.239Z,16.03
2022-10-30T20:58:26.044Z,16.00
2022-10-30T21:00:55.457Z,15.95
2022-10-30T21:03:23.183Z,15.94
2022-10-30T21:06:01.375Z,15.95
2022-10-30T21:08:31.614Z,15.96
2022-10-30T21:11:00.435Z,15.92
2022-10-30T21:13:28.718Z,15.89
2022-10-30T21:16:01.140Z,15.91
2022-10-30T21:18:28.596Z,15.89
2022-10-30T21:21:11.635Z,15.90
2022-10-30T21:23:39.164Z,15.87
2022-10-30T21:26:11.105Z,15.91
2022-10-30T21:28:40.476Z,15.91
2022-10-30T21:31:10.964Z,15.96
2022-10-30T21:33:38.485Z,15.94
2022-10-30T21:36:14.086Z,15.95
2022-10-30T21:38:43.183Z,15.99
2022-10-30T21:41:14.476Z,15.99
2022-10-30T21:43:42.675Z,16.01
2022-10-30T21:46:12.379Z,16.00
2022-10-30T21:48:40.075Z,16.01
2022-10-30T21:51:12.948Z,16.02
2022-10-30T21:53:40.816Z,16.02
2022-10-30T21:56:17.369Z,16.04
2022-10-30T21:58:45.204Z,16.03
2022-10-30T22:01:21.903Z,16.01
2022-10-30T22:03:49.817Z,16.03
2022-10-30T22:06:18.656Z,16.05
2022-10-30T22:08:47.423Z,16.07
2022-10-30T22:11:15.117Z,16.02
2022-10-30T22:13:42.734Z,15.97
2022-10-30T22:16:12.319Z,16.06
2022-10-30T22:18:40.518Z,16.06
2022-10-30T22:21:10.431Z,16.03
2022-10-30T22:23:39.817Z,16.08
2022-10-30T22:26:11.111Z,16.06
2022-10-30T22:28:38.758Z,16.07
2022-10-30T22:31:08.577Z,16.07
2022-10-30T22:33:36.368Z,16.08
2022-10-30T22:36:07.624Z,16.09
2022-10-30T22:38:35.540Z,16.08
2022-10-30T22:41:09.990Z,16.02
2022-10-30T22:43:37.724Z,16.09
2022-10-30T22:46:05.236Z,16.10
2022-10-30T22:48:32.743Z,16.09
2022-10-30T22:51:01.429Z,16.08
2022-10-30T22:53:30.073Z,16.03
2022-10-30T22:55:57.547Z,16.11
2022-10-30T22:58:29.554Z,16.08
2022-10-30T23:01:24.507Z,16.07
2022-10-30T23:03:54.765Z,16.07
2022-10-30T23:06:22.469Z,16.06
2022-10-30T23:08:52.615Z,16.02
2022-10-30T23:11:20.656Z,16.03
2022-10-30T23:13:49.576Z,16.00
2022-10-30T23:16:19.772Z,15.98
2022-10-30T23:18:48.187Z,15.97
2022-10-30T23:21:20.953Z,15.95
2022-10-30T23:23:48.950Z,15.92
2022-10-30T23:26:19.612Z,15.90
2022-10-30T23:28:48.625Z,15.88
2022-10-30T23:31:23.492Z,15.86
2022-10-30T23:33:53.560Z,15.81
2022-10-30T23:36:21.636Z,15.82
2022-10-30T23:38:53.532Z,15.79
2022-10-30T23:41:21.927Z,15.77
2022-10-30T23:43:53.612Z,15.71
2022-10-30T23:46:21.671Z,15.70
2022-10-30T23:48:49.325Z,15.69
2022-10-30T23:51:17.032Z,15.52
2022-10-30T23:53:44.503Z,15.63
2022-10-30T23:56:12.616Z,15.59
2022-10-30T23:58:43.866Z,15.55
